createdAt,value
2018-04-14T00:00:33.642Z,10.30
2018-04-14T00:01:36.874Z,10.30
2018-04-14T00:02:40.111Z,10.20
2018-04-14T00:03:43.701Z,10.20
2018-04-14T00:04:47.666Z,10.20
2018-04-14T00:05:50.962Z,10.20
2018-04-14T00:06:54.947Z,10.30
2018-04-14T00:07:58.163Z,10.30
2018-04-14T00:09:01.453Z,10.30
2018-04-14T00:10:04.676Z,10.30
2018-04-14T00:11:08.029Z,10.30
2018-04-14T00:12:11.258Z,10.30
2018-04-14T00:13:14.484Z,10.20
2018-04-14T00:14:17.755Z,10.20
2018-04-14T00:15:20.997Z,10.10
2018-04-14T00:16:24.231Z,10.10
2018-04-14T00:17:27.525Z,10.20
2018-04-14T00:18:30.769Z,10.20
2018-04-14T00:19:33.987Z,10.20
2018-04-14T00:20:37.220Z,10.10
2018-04-14T00:21:40.427Z,10.10
2018-04-14T00:22:44.446Z,10.10
2018-04-14T00:23:47.670Z,10.10
2018-04-14T00:24:50.898Z,10.10
2018-04-14T00:25:54.884Z,10.10
2018-04-14T00:26:58.885Z,10.00
2018-04-14T00:28:02.880Z,10.10
2018-04-14T00:29:06.884Z,10.10
2018-04-14T00:30:10.101Z,10.10
2018-04-14T00:31:13.317Z,10.10
2018-04-14T00:32:16.556Z,10.10
2018-04-14T00:33:19.784Z,10.10
2018-04-14T00:34:23.015Z,10.10
2018-04-14T00:35:26.242Z,10.10
2018-04-14T00:36:29.476Z,10.10
2018-04-14T00:37:33.471Z,10.00
2018-04-14T00:38:37.468Z,10.00
2018-04-14T00:39:41.534Z,10.00
2018-04-14T00:40:45.465Z,10.00
2018-04-14T00:41:49.452Z,10.00
2018-04-14T00:42:52.677Z,10.00
2018-04-14T00:43:55.912Z,10.00
2018-04-14T00:44:59.140Z,10.00
2018-04-14T00:46:02.371Z,10.10
2018-04-14T00:47:05.604Z,10.00
2018-04-14T00:48:09.644Z,10.00
2018-04-14T00:49:12.889Z,10.00
2018-04-14T00:50:16.869Z,10.10
2018-04-14T00:51:20.102Z,10.10
2018-04-14T00:52:23.345Z,10.10
2018-04-14T00:53:38.537Z,10.00
2018-04-14T00:54:41.806Z,10.00
2018-04-14T00:55:45.780Z,10.00
2018-04-14T00:56:49.768Z,10.00
2018-04-14T00:57:54.503Z,10.10
2018-04-14T00:58:58.520Z,10.00
2018-04-14T01:00:02.515Z,10.00
2018-04-14T01:01:06.640Z,10.00
2018-04-14T01:02:09.885Z,10.00
2018-04-14T01:03:13.882Z,10.00
2018-04-14T01:04:17.150Z,10.00
2018-04-14T01:05:20.402Z,9.90
2018-04-14T01:06:23.634Z,9.90
2018-04-14T01:07:26.947Z,9.80
2018-04-14T01:08:30.168Z,9.80
2018-04-14T01:09:33.378Z,9.80
2018-04-14T01:10:36.610Z,9.80
2018-04-14T01:11:39.828Z,9.80
2018-04-14T01:12:43.083Z,9.80
2018-04-14T01:13:47.066Z,9.80
2018-04-14T01:14:50.276Z,9.80
2018-04-14T01:15:53.499Z,9.70
2018-04-14T01:16:56.714Z,9.70
2018-04-14T01:17:59.918Z,9.70
2018-04-14T01:19:03.139Z,9.70
2018-04-14T01:20:06.365Z,9.60
2018-04-14T01:21:10.347Z,9.70
2018-04-14T01:22:13.714Z,9.70
2018-04-14T01:23:17.713Z,9.60
2018-04-14T01:24:20.928Z,9.60
2018-04-14T01:25:24.155Z,9.70
2018-04-14T01:26:27.433Z,9.60
2018-04-14T01:27:30.614Z,9.70
2018-04-14T01:28:33.839Z,9.70
2018-04-14T01:29:37.810Z,9.60
2018-04-14T01:30:41.040Z,9.50
2018-04-14T01:31:45.060Z,9.50
2018-04-14T01:32:48.520Z,9.50
2018-04-14T01:33:52.507Z,9.50
2018-04-14T01:34:56.491Z,9.50
2018-04-14T01:35:59.712Z,9.50
2018-04-14T01:37:02.938Z,9.50
2018-04-14T01:38:06.271Z,9.50
2018-04-14T01:39:10.260Z,9.50
2018-04-14T01:40:14.246Z,9.50
2018-04-14T01:41:17.451Z,9.50
2018-04-14T01:42:20.670Z,9.50
2018-04-14T01:43:23.887Z,9.50
2018-04-14T01:44:27.117Z,9.60
2018-04-14T01:45:30.335Z,9.60
2018-04-14T01:46:33.573Z,9.60
2018-04-14T01:47:36.790Z,9.60
2018-04-14T01:48:40.038Z,9.50
2018-04-14T01:49:44.011Z,9.50
2018-04-14T01:50:47.226Z,9.50
2018-04-14T01:51:50.520Z,9.50
2018-04-14T01:52:53.745Z,9.40
2018-04-14T01:53:56.951Z,9.40
2018-04-14T01:55:00.970Z,9.40
2018-04-14T01:56:04.184Z,9.40
2018-04-14T01:57:07.397Z,9.40
2018-04-14T01:58:10.622Z,9.40
2018-04-14T01:59:13.839Z,9.30
2018-04-14T02:00:17.085Z,9.40
2018-04-14T02:01:21.114Z,9.30
2018-04-14T02:02:24.323Z,9.30
2018-04-14T02:03:27.542Z,9.30
2018-04-14T02:04:31.517Z,9.30
2018-04-14T02:05:34.733Z,9.30
2018-04-14T02:06:38.053Z,9.40
2018-04-14T02:07:41.311Z,9.30
2018-04-14T02:08:44.640Z,9.30
2018-04-14T02:09:47.852Z,9.20
2018-04-14T02:10:51.848Z,9.20
2018-04-14T02:11:55.827Z,9.20
2018-04-14T02:12:59.027Z,9.10
2018-04-14T02:14:03.023Z,9.10
2018-04-14T02:15:06.231Z,9.10
2018-04-14T02:16:10.243Z,9.10
2018-04-14T02:17:13.541Z,9.10
2018-04-14T02:18:17.525Z,9.20
2018-04-14T02:19:20.765Z,9.20
2018-04-14T02:20:24.078Z,9.20
2018-04-14T02:21:27.322Z,9.20
2018-04-14T02:22:30.538Z,9.20
2018-04-14T02:23:33.769Z,9.10
2018-04-14T02:24:37.007Z,9.10
2018-04-14T02:25:40.998Z,9.10
2018-04-14T02:26:44.234Z,9.00
2018-04-14T02:27:47.548Z,9.00
2018-04-14T02:28:50.780Z,9.10
2018-04-14T02:29:54.734Z,9.10
2018-04-14T02:30:57.978Z,9.10
2018-04-14T02:32:01.285Z,9.10
2018-04-14T02:33:04.549Z,9.10
2018-04-14T02:34:07.806Z,9.00
2018-04-14T02:35:11.042Z,9.00
2018-04-14T02:36:14.283Z,8.90
2018-04-14T02:37:17.492Z,9.00
2018-04-14T02:38:20.728Z,9.00
2018-04-14T02:39:24.699Z,8.90
2018-04-14T02:40:28.007Z,8.90
2018-04-14T02:41:32.101Z,8.90
2018-04-14T02:42:36.105Z,8.90
2018-04-14T02:43:40.080Z,9.00
2018-04-14T02:44:43.295Z,8.90
2018-04-14T02:45:47.291Z,8.90
2018-04-14T02:46:51.299Z,8.90
2018-04-14T02:47:55.286Z,8.80
2018-04-14T02:48:59.261Z,8.90
2018-04-14T02:50:02.485Z,8.90
2018-04-14T02:51:06.490Z,8.80
2018-04-14T02:52:09.758Z,8.80
2018-04-14T02:53:12.935Z,8.80
2018-04-14T02:54:16.918Z,8.90
2018-04-14T02:55:20.144Z,8.90
2018-04-14T02:56:24.137Z,8.90
2018-04-14T02:57:28.190Z,8.90
2018-04-14T02:58:31.399Z,8.90
2018-04-14T02:59:34.610Z,8.90
2018-04-14T03:00:37.918Z,9.00
2018-04-14T03:01:41.122Z,9.00
2018-04-14T03:02:44.331Z,8.90
2018-04-14T03:03:48.310Z,8.90
2018-04-14T03:04:51.510Z,8.90
2018-04-14T03:05:54.721Z,8.80
2018-04-14T03:06:57.934Z,8.80
2018-04-14T03:08:01.140Z,8.80
2018-04-14T03:09:05.157Z,8.80
2018-04-14T03:10:08.460Z,8.80
2018-04-14T03:11:12.461Z,8.80
2018-04-14T03:12:16.452Z,8.90
2018-04-14T03:13:20.422Z,8.90
2018-04-14T03:14:23.623Z,8.90
2018-04-14T03:15:26.840Z,8.90
2018-04-14T03:16:30.052Z,8.90
2018-04-14T03:17:33.264Z,8.80
2018-04-14T03:18:36.589Z,8.90
2018-04-14T03:19:39.786Z,8.90
2018-04-14T03:20:43.008Z,8.90
2018-04-14T03:21:46.203Z,8.90
2018-04-14T03:22:49.603Z,8.90
2018-04-14T03:23:53.743Z,8.80
2018-04-14T03:24:57.058Z,8.80
2018-04-14T03:26:00.263Z,8.80
2018-04-14T03:27:03.472Z,8.70
2018-04-14T03:28:06.678Z,8.70
2018-04-14T03:29:09.907Z,8.70
2018-04-14T03:30:13.117Z,8.80
2018-04-14T03:31:16.439Z,8.70
2018-04-14T03:32:20.382Z,8.70
2018-04-14T03:33:23.583Z,8.70
2018-04-14T03:34:26.795Z,8.70
2018-04-14T03:35:30.008Z,8.70
2018-04-14T03:36:33.223Z,8.70
2018-04-14T03:37:36.457Z,8.70
2018-04-14T03:38:39.660Z,8.60
2018-04-14T03:39:42.864Z,8.60
2018-04-14T03:40:46.841Z,8.60
2018-04-14T03:41:50.043Z,8.60
2018-04-14T03:42:54.020Z,8.60
2018-04-14T03:43:57.213Z,8.60
2018-04-14T03:45:00.426Z,8.60
2018-04-14T03:46:03.738Z,8.70
2018-04-14T03:47:06.938Z,8.70
2018-04-14T03:48:10.152Z,8.70
2018-04-14T03:49:14.125Z,8.70
2018-04-14T03:50:17.344Z,8.70
2018-04-14T03:51:21.306Z,8.60
2018-04-14T03:52:24.515Z,8.60
2018-04-14T03:53:27.722Z,8.60
2018-04-14T03:54:31.005Z,8.60
2018-04-14T03:55:34.962Z,8.60
2018-04-14T03:56:38.180Z,8.60
2018-04-14T03:57:42.163Z,8.60
2018-04-14T03:58:45.367Z,8.60
2018-04-14T03:59:48.566Z,8.60
2018-04-14T04:00:51.768Z,8.60
2018-04-14T04:01:55.835Z,8.60
2018-04-14T04:02:59.110Z,8.60
2018-04-14T04:04:03.070Z,8.60
2018-04-14T04:05:06.323Z,8.60
2018-04-14T04:06:09.513Z,8.60
2018-04-14T04:07:12.812Z,8.60
2018-04-14T04:08:16.106Z,8.60
2018-04-14T04:09:19.334Z,8.60
2018-04-14T04:10:22.536Z,8.60
2018-04-14T04:11:25.764Z,8.70
2018-04-14T04:12:28.986Z,8.60
2018-04-14T04:13:32.246Z,8.60
2018-04-14T04:14:36.222Z,8.50
2018-04-14T04:15:39.438Z,8.50
2018-04-14T04:16:43.443Z,8.50
2018-04-14T04:17:46.619Z,8.50
2018-04-14T04:19:02.464Z,8.50
2018-04-14T04:20:17.663Z,8.50
2018-04-14T04:21:33.647Z,8.50
2018-04-14T04:22:49.653Z,8.50
2018-04-14T04:24:04.807Z,8.60
2018-04-14T04:25:31.640Z,8.50
2018-04-14T04:26:34.866Z,8.60
2018-04-14T04:27:38.104Z,8.50
2018-04-14T04:28:42.070Z,8.50
2018-04-14T04:29:45.290Z,8.50
2018-04-14T04:30:48.558Z,8.50
2018-04-14T04:31:51.769Z,8.50
2018-04-14T04:32:54.977Z,8.50
2018-04-14T04:33:58.227Z,8.50
2018-04-14T04:35:02.173Z,8.50
2018-04-14T04:36:05.363Z,8.50
2018-04-14T04:37:08.595Z,8.50
2018-04-14T04:38:11.816Z,8.50
2018-04-14T04:39:15.036Z,8.50
2018-04-14T04:40:19.044Z,8.50
2018-04-14T04:41:22.996Z,8.60
2018-04-14T04:42:26.206Z,8.50
2018-04-14T04:43:30.188Z,8.50
2018-04-14T04:44:33.456Z,8.50
2018-04-14T04:45:36.663Z,8.50
2018-04-14T04:46:39.883Z,8.50
2018-04-14T04:47:43.141Z,8.60
2018-04-14T04:48:47.187Z,8.60
2018-04-14T04:49:50.341Z,8.60
2018-04-14T04:50:54.162Z,8.60
2018-04-14T04:51:57.442Z,8.60
2018-04-14T04:53:00.670Z,8.60
2018-04-14T04:54:03.871Z,8.60
2018-04-14T04:55:07.836Z,8.70
2018-04-14T04:56:11.064Z,8.70
2018-04-14T04:57:15.049Z,8.70
2018-04-14T04:58:18.251Z,8.70
2018-04-14T04:59:21.502Z,8.80
2018-04-14T05:00:24.705Z,8.80
2018-04-14T05:01:28.701Z,8.80
2018-04-14T05:02:32.675Z,8.70
2018-04-14T05:03:37.396Z,8.70
2018-04-14T05:04:40.801Z,8.70
2018-04-14T05:05:44.788Z,8.70
2018-04-14T05:06:48.011Z,8.70
2018-04-14T05:07:51.986Z,8.70
2018-04-14T05:08:55.962Z,8.70
2018-04-14T05:09:59.187Z,8.70
2018-04-14T05:11:02.389Z,8.70
2018-04-14T05:12:05.610Z,8.70
2018-04-14T05:13:08.884Z,8.80
2018-04-14T05:14:12.114Z,8.80
2018-04-14T05:15:16.110Z,8.90
2018-04-14T05:16:20.086Z,8.90
2018-04-14T05:17:23.294Z,8.90
2018-04-14T05:18:27.273Z,8.90
2018-04-14T05:19:30.489Z,8.90
2018-04-14T05:20:33.696Z,8.80
2018-04-14T05:21:36.905Z,8.80
2018-04-14T05:22:40.239Z,8.80
2018-04-14T05:23:43.440Z,8.80
2018-04-14T05:24:46.662Z,8.80
2018-04-14T05:25:49.863Z,8.70
2018-04-14T05:26:53.855Z,8.70
2018-04-14T05:27:57.072Z,8.60
2018-04-14T05:29:00.304Z,8.70
2018-04-14T05:30:03.559Z,8.70
2018-04-14T05:31:06.768Z,8.70
2018-04-14T05:32:09.958Z,8.70
2018-04-14T05:33:13.188Z,8.80
2018-04-14T05:34:16.387Z,8.80
2018-04-14T05:35:19.585Z,8.80
2018-04-14T05:36:22.799Z,8.80
2018-04-14T05:37:26.067Z,8.90
2018-04-14T05:38:29.251Z,9.10
2018-04-14T05:39:32.463Z,9.30
2018-04-14T05:40:36.441Z,9.60
2018-04-14T05:41:39.636Z,9.60
2018-04-14T05:42:43.640Z,9.70
2018-04-14T05:43:46.827Z,9.70
2018-04-14T05:44:50.119Z,9.80
2018-04-14T05:45:54.103Z,9.80
2018-04-14T05:46:58.086Z,9.70
2018-04-14T05:48:01.334Z,9.70
2018-04-14T05:49:04.528Z,9.60
2018-04-14T05:50:08.025Z,9.50
2018-04-14T05:51:11.244Z,9.40
2018-04-14T05:52:14.439Z,9.30
2018-04-14T05:53:17.667Z,9.30
2018-04-14T05:54:20.858Z,9.20
2018-04-14T05:55:24.100Z,9.10
2018-04-14T05:56:27.368Z,9.10
2018-04-14T05:57:30.563Z,9.10
2018-04-14T05:58:33.775Z,9.10
2018-04-14T05:59:36.983Z,9.10
2018-04-14T06:00:40.201Z,9.20
2018-04-14T06:01:43.450Z,9.20
2018-04-14T06:02:46.681Z,9.30
2018-04-14T06:03:49.889Z,9.20
2018-04-14T06:04:53.091Z,9.20
2018-04-14T06:05:56.296Z,9.20
2018-04-14T06:06:59.548Z,9.30
2018-04-14T06:08:02.804Z,9.30
2018-04-14T06:09:06.028Z,9.30
2018-04-14T06:10:09.257Z,9.30
2018-04-14T06:11:12.484Z,9.30
2018-04-14T06:12:15.695Z,9.30
2018-04-14T06:13:19.679Z,9.30
2018-04-14T06:14:22.891Z,9.40
2018-04-14T06:15:26.099Z,9.40
2018-04-14T06:16:29.317Z,9.50
2018-04-14T06:17:32.624Z,9.50
2018-04-14T06:18:36.617Z,9.60
2018-04-14T06:19:40.594Z,9.60
2018-04-14T06:20:43.805Z,9.60
2018-04-14T06:21:47.774Z,9.60
2018-04-14T06:22:51.170Z,9.60
2018-04-14T06:23:54.455Z,9.70
2018-04-14T06:24:57.679Z,9.70
2018-04-14T06:26:00.920Z,9.70
2018-04-14T06:27:04.131Z,9.80
2018-04-14T06:28:07.354Z,9.80
2018-04-14T06:29:10.599Z,9.80
2018-04-14T06:30:14.556Z,9.90
2018-04-14T06:31:17.750Z,9.90
2018-04-14T06:32:21.023Z,9.90
2018-04-14T06:33:24.248Z,10.00
2018-04-14T06:34:27.458Z,9.90
2018-04-14T06:35:30.675Z,10.00
2018-04-14T06:36:33.894Z,10.00
2018-04-14T06:37:37.108Z,10.10
2018-04-14T06:38:40.340Z,10.20
2018-04-14T06:39:43.626Z,10.20
2018-04-14T06:40:47.600Z,10.30
2018-04-14T06:41:50.852Z,10.20
2018-04-14T06:42:54.099Z,10.30
2018-04-14T06:43:58.091Z,10.40
2018-04-14T06:45:01.310Z,10.30
2018-04-14T06:46:04.518Z,10.30
2018-04-14T06:47:07.719Z,10.40
2018-04-14T06:48:10.933Z,10.40
2018-04-14T06:49:14.920Z,10.50
2018-04-14T06:50:18.916Z,10.50
2018-04-14T06:51:22.119Z,10.50
2018-04-14T06:52:26.097Z,10.60
2018-04-14T06:53:30.227Z,10.50
2018-04-14T06:54:33.448Z,10.50
2018-04-14T06:55:36.655Z,10.60
2018-04-14T06:56:40.621Z,10.60
2018-04-14T06:57:43.989Z,10.60
2018-04-14T06:58:47.926Z,10.70
2018-04-14T06:59:51.195Z,10.70
2018-04-14T07:00:55.141Z,10.80
2018-04-14T07:01:59.167Z,11.00
2018-04-14T07:03:02.419Z,11.00
2018-04-14T07:04:05.633Z,10.90
2018-04-14T07:05:08.901Z,10.90
2018-04-14T07:06:12.898Z,11.00
2018-04-14T07:07:16.888Z,11.00
2018-04-14T07:08:20.098Z,11.00
2018-04-14T07:09:23.307Z,11.10
2018-04-14T07:10:26.539Z,11.10
2018-04-14T07:11:29.740Z,11.10
2018-04-14T07:12:32.969Z,11.20
2018-04-14T07:13:36.171Z,11.20
2018-04-14T07:14:39.386Z,11.20
2018-04-14T07:15:42.606Z,11.30
2018-04-14T07:16:45.814Z,11.20
2018-04-14T07:17:49.051Z,11.30
2018-04-14T07:18:52.257Z,11.30
2018-04-14T07:19:55.480Z,11.40
2018-04-14T07:20:58.684Z,11.50
2018-04-14T07:22:01.914Z,11.50
2018-04-14T07:23:05.146Z,11.60
2018-04-14T07:24:08.354Z,11.60
2018-04-14T07:25:11.559Z,11.60
2018-04-14T07:26:14.790Z,11.70
2018-04-14T07:27:18.018Z,11.70
2018-04-14T07:28:21.229Z,11.70
2018-04-14T07:29:24.468Z,11.70
2018-04-14T07:30:27.731Z,11.70
2018-04-14T07:31:30.947Z,11.80
2018-04-14T07:32:34.187Z,11.90
2018-04-14T07:33:38.162Z,12.10
2018-04-14T07:34:42.152Z,12.10
2018-04-14T07:35:45.378Z,12.10
2018-04-14T07:36:48.594Z,12.20
2018-04-14T07:37:51.814Z,12.20
2018-04-14T07:38:55.787Z,12.20
2018-04-14T07:39:59.011Z,12.20
2018-04-14T07:41:02.989Z,12.30
2018-04-14T07:42:06.196Z,12.20
2018-04-14T07:43:10.179Z,12.40
2018-04-14T07:44:14.171Z,12.50
2018-04-14T07:45:17.480Z,12.40
2018-04-14T07:46:21.464Z,12.50
2018-04-14T07:47:24.673Z,12.50
2018-04-14T07:48:27.912Z,12.50
2018-04-14T07:49:31.100Z,12.60
2018-04-14T07:50:34.343Z,12.70
2018-04-14T07:51:37.563Z,12.70
2018-04-14T07:52:40.764Z,12.70
2018-04-14T07:53:44.781Z,12.80
2018-04-14T07:54:47.984Z,12.80
2018-04-14T07:55:51.205Z,12.90
2018-04-14T07:56:54.441Z,12.90
2018-04-14T07:57:57.653Z,12.90
2018-04-14T07:59:00.868Z,13.00
2018-04-14T08:00:04.127Z,13.00
2018-04-14T08:01:07.296Z,13.10
2018-04-14T08:02:10.527Z,13.20
2018-04-14T08:03:14.567Z,13.10
2018-04-14T08:04:17.784Z,13.10
2018-04-14T08:05:21.012Z,13.20
2018-04-14T08:06:24.244Z,13.20
2018-04-14T08:07:27.488Z,13.30
2018-04-14T08:08:31.453Z,13.50
2018-04-14T08:09:35.427Z,13.60
2018-04-14T08:10:38.653Z,13.60
2018-04-14T08:11:42.681Z,13.70
2018-04-14T08:12:45.912Z,13.70
2018-04-14T08:13:49.996Z,13.80
2018-04-14T08:14:53.240Z,13.80
2018-04-14T08:15:56.459Z,13.80
2018-04-14T08:16:59.731Z,13.90
2018-04-14T08:18:02.952Z,13.90
2018-04-14T08:19:06.262Z,13.90
2018-04-14T08:20:09.563Z,13.90
2018-04-14T08:21:12.763Z,14.00
2018-04-14T08:22:16.133Z,14.00
2018-04-14T08:23:19.364Z,14.00
2018-04-14T08:24:24.101Z,14.10
2018-04-14T08:25:28.078Z,14.10
2018-04-14T08:26:32.072Z,14.20
2018-04-14T08:27:35.269Z,14.20
2018-04-14T08:28:39.259Z,14.40
2018-04-14T08:29:44.007Z,14.50
2018-04-14T08:30:48.009Z,14.60
2018-04-14T08:31:52.016Z,14.60
2018-04-14T08:32:55.985Z,14.50
2018-04-14T08:33:59.208Z,14.50
2018-04-14T08:35:02.464Z,14.50
2018-04-14T08:36:05.672Z,14.60
2018-04-14T08:37:08.952Z,14.60
2018-04-14T08:38:12.193Z,14.60
2018-04-14T08:39:15.413Z,14.60
2018-04-14T08:40:18.633Z,14.70
2018-04-14T08:41:21.834Z,14.60
2018-04-14T08:42:25.068Z,14.60
2018-04-14T08:43:28.269Z,14.60
2018-04-14T08:44:31.492Z,14.60
2018-04-14T08:45:34.706Z,14.60
2018-04-14T08:46:38.677Z,14.60
2018-04-14T08:47:41.915Z,14.60
2018-04-14T08:48:45.120Z,14.70
2018-04-14T08:49:48.323Z,14.60
2018-04-14T08:50:51.543Z,14.80
2018-04-14T08:51:54.755Z,14.80
2018-04-14T08:52:58.194Z,14.80
2018-04-14T08:54:02.214Z,14.90
2018-04-14T08:55:06.266Z,15.00
2018-04-14T08:56:09.499Z,15.00
2018-04-14T08:57:13.463Z,15.00
2018-04-14T08:58:16.716Z,14.90
2018-04-14T08:59:19.964Z,15.00
2018-04-14T09:00:23.197Z,15.10
2018-04-14T09:01:26.403Z,15.00
2018-04-14T09:02:30.368Z,15.10
2018-04-14T09:03:33.578Z,15.00
2018-04-14T09:04:36.775Z,15.10
2018-04-14T09:05:40.771Z,15.10
2018-04-14T09:06:44.802Z,15.10
2018-04-14T09:07:48.028Z,15.20
2018-04-14T09:08:51.307Z,15.20
2018-04-14T09:09:54.491Z,15.30
2018-04-14T09:10:57.700Z,15.30
2018-04-14T09:12:01.706Z,15.40
2018-04-14T09:13:05.005Z,15.40
2018-04-14T09:14:08.211Z,15.30
2018-04-14T09:15:14.252Z,15.30
2018-04-14T09:16:17.464Z,15.40
2018-04-14T09:17:20.696Z,15.40
2018-04-14T09:18:24.669Z,15.40
2018-04-14T09:19:27.986Z,15.40
2018-04-14T09:20:31.209Z,15.40
2018-04-14T09:21:34.482Z,15.40
2018-04-14T09:22:37.671Z,15.50
2018-04-14T09:23:41.465Z,15.50
2018-04-14T09:24:44.698Z,15.60
2018-04-14T09:25:48.041Z,15.60
2018-04-14T09:26:51.268Z,15.70
2018-04-14T09:27:54.486Z,15.70
2018-04-14T09:28:57.712Z,15.80
2018-04-14T09:30:00.915Z,15.80
2018-04-14T09:31:04.947Z,15.70
2018-04-14T09:32:08.172Z,15.70
2018-04-14T09:33:12.896Z,15.80
2018-04-14T09:34:16.112Z,15.80
2018-04-14T09:35:19.339Z,15.90
2018-04-14T09:36:22.549Z,16.00
2018-04-14T09:37:25.764Z,16.00
2018-04-14T09:38:28.988Z,16.00
2018-04-14T09:39:32.210Z,16.00
2018-04-14T09:40:35.423Z,16.00
2018-04-14T09:41:38.645Z,16.00
2018-04-14T09:42:41.867Z,15.90
2018-04-14T09:43:45.128Z,15.90
2018-04-14T09:44:48.358Z,16.00
2018-04-14T09:45:51.576Z,16.00
2018-04-14T09:46:56.298Z,16.00
2018-04-14T09:47:59.514Z,16.00
2018-04-14T09:49:03.538Z,16.20
2018-04-14T09:50:07.476Z,16.20
2018-04-14T09:51:10.703Z,16.20
2018-04-14T09:52:14.037Z,16.30
2018-04-14T09:53:17.269Z,16.40
2018-04-14T09:54:21.256Z,16.40
2018-04-14T09:55:25.250Z,16.40
2018-04-14T09:56:28.497Z,16.40
2018-04-14T09:57:31.674Z,16.50
2018-04-14T09:58:34.895Z,16.60
2018-04-14T09:59:38.210Z,16.60
2018-04-14T10:00:47.787Z,16.70
2018-04-14T10:01:51.015Z,16.70
2018-04-14T10:03:00.067Z,16.70
2018-04-14T10:04:03.247Z,16.70
2018-04-14T10:05:06.472Z,16.70
2018-04-14T10:06:09.711Z,16.80
2018-04-14T10:07:12.939Z,17.00
2018-04-14T10:08:16.928Z,16.90
2018-04-14T10:09:20.165Z,16.90
2018-04-14T10:10:23.405Z,16.90
2018-04-14T10:11:26.633Z,16.80
2018-04-14T10:12:29.883Z,16.80
2018-04-14T10:13:33.860Z,16.80
2018-04-14T10:14:37.091Z,16.80
2018-04-14T10:15:40.292Z,16.80
2018-04-14T10:16:43.572Z,16.80
2018-04-14T10:17:46.786Z,16.90
2018-04-14T10:18:50.058Z,17.00
2018-04-14T10:19:53.268Z,17.00
2018-04-14T10:20:56.575Z,17.10
2018-04-14T10:22:00.567Z,17.00
2018-04-14T10:23:04.534Z,16.90
2018-04-14T10:24:07.823Z,16.90
2018-04-14T10:25:11.056Z,17.00
2018-04-14T10:26:14.314Z,17.10
2018-04-14T10:27:17.522Z,17.20
2018-04-14T10:28:20.742Z,17.20
2018-04-14T10:29:23.958Z,17.20
2018-04-14T10:30:27.185Z,17.20
2018-04-14T10:31:30.363Z,17.30
2018-04-14T10:32:33.647Z,17.40
2018-04-14T10:33:36.878Z,17.40
2018-04-14T10:34:40.059Z,17.50
2018-04-14T10:35:43.290Z,17.40
2018-04-14T10:36:46.546Z,17.40
2018-04-14T10:37:50.579Z,17.40
2018-04-14T10:38:53.764Z,17.40
2018-04-14T10:39:56.999Z,17.40
2018-04-14T10:41:01.721Z,17.50
2018-04-14T10:42:05.693Z,17.50
2018-04-14T10:43:08.923Z,17.50
2018-04-14T10:44:12.131Z,17.60
2018-04-14T10:45:15.353Z,17.50
2018-04-14T10:46:18.572Z,17.60
2018-04-14T10:47:22.540Z,17.70
2018-04-14T10:48:25.749Z,17.70
2018-04-14T10:49:28.990Z,17.80
2018-04-14T10:50:32.222Z,17.90
2018-04-14T10:51:36.194Z,17.80
2018-04-14T10:52:40.185Z,17.80
2018-04-14T10:53:43.397Z,17.80
2018-04-14T10:54:47.377Z,17.90
2018-04-14T10:55:50.634Z,17.90
2018-04-14T10:56:53.812Z,18.00
2018-04-14T10:57:57.035Z,18.20
2018-04-14T10:59:01.017Z,18.20
2018-04-14T11:00:04.261Z,18.20
2018-04-14T11:01:07.475Z,18.20
2018-04-14T11:02:10.690Z,18.30
2018-04-14T11:03:14.683Z,18.20
2018-04-14T11:04:18.673Z,18.30
2018-04-14T11:05:21.894Z,18.30
2018-04-14T11:06:25.115Z,18.20
2018-04-14T11:07:28.312Z,18.20
2018-04-14T11:08:31.524Z,18.20
2018-04-14T11:09:35.518Z,18.20
2018-04-14T11:10:39.504Z,18.20
2018-04-14T11:11:43.495Z,18.20
2018-04-14T11:12:46.711Z,18.20
2018-04-14T11:13:50.743Z,18.40
2018-04-14T11:14:53.982Z,18.30
2018-04-14T11:15:57.971Z,18.50
2018-04-14T11:17:01.207Z,18.50
2018-04-14T11:18:04.430Z,18.50
2018-04-14T11:19:07.646Z,18.40
2018-04-14T11:20:10.844Z,18.30
2018-04-14T11:21:14.056Z,18.20
2018-04-14T11:22:17.414Z,18.30
2018-04-14T11:23:20.650Z,18.40
2018-04-14T11:24:23.903Z,18.30
2018-04-14T11:25:27.132Z,18.30
2018-04-14T11:26:31.116Z,18.40
2018-04-14T11:27:34.338Z,18.50
2018-04-14T11:28:37.598Z,18.50
2018-04-14T11:29:41.584Z,18.60
2018-04-14T11:30:44.913Z,18.60
2018-04-14T11:31:48.107Z,18.60
2018-04-14T11:32:51.361Z,18.60
2018-04-14T11:33:55.350Z,18.50
2018-04-14T11:34:59.315Z,18.60
2018-04-14T11:36:02.549Z,18.60
2018-04-14T11:37:05.827Z,18.60
2018-04-14T11:38:09.058Z,18.70
2018-04-14T11:39:12.301Z,18.60
2018-04-14T11:40:15.577Z,18.60
2018-04-14T11:41:18.816Z,18.60
2018-04-14T11:42:22.016Z,18.70
2018-04-14T11:43:26.050Z,18.90
2018-04-14T11:44:29.329Z,18.90
2018-04-14T11:45:32.616Z,18.90
2018-04-14T11:46:35.836Z,18.90
2018-04-14T11:47:39.078Z,19.00
2018-04-14T11:48:42.380Z,19.10
2018-04-14T11:49:45.625Z,19.10
2018-04-14T11:50:49.621Z,19.20
2018-04-14T11:51:53.668Z,19.30
2018-04-14T11:52:56.880Z,19.30
2018-04-14T11:54:00.116Z,19.20
2018-04-14T11:55:03.329Z,19.20
2018-04-14T11:56:06.574Z,19.10
2018-04-14T11:57:10.684Z,19.00
2018-04-14T11:58:13.911Z,19.00
2018-04-14T11:59:17.127Z,19.00
2018-04-14T12:00:21.096Z,19.10
2018-04-14T12:01:24.332Z,19.00
2018-04-14T12:02:27.553Z,19.10
2018-04-14T12:03:30.759Z,19.10
2018-04-14T12:04:33.980Z,19.10
2018-04-14T12:05:37.182Z,19.10
2018-04-14T12:06:40.435Z,19.20
2018-04-14T12:07:43.658Z,19.20
2018-04-14T12:08:46.877Z,19.20
2018-04-14T12:09:50.103Z,19.20
2018-04-14T12:10:54.060Z,19.40
2018-04-14T12:11:57.292Z,19.30
2018-04-14T12:13:00.503Z,19.50
2018-04-14T12:14:03.730Z,19.40
2018-04-14T12:15:06.985Z,19.40
2018-04-14T12:16:10.196Z,19.30
2018-04-14T12:17:14.172Z,19.30
2018-04-14T12:18:17.444Z,19.30
2018-04-14T12:19:20.680Z,19.30
2018-04-14T12:20:23.916Z,19.30
2018-04-14T12:21:27.297Z,19.30
2018-04-14T12:22:30.499Z,19.40
2018-04-14T12:23:34.496Z,19.50
2018-04-14T12:24:37.737Z,19.50
2018-04-14T12:25:40.956Z,19.50
2018-04-14T12:26:44.180Z,19.50
2018-04-14T12:27:47.394Z,19.60
2018-04-14T12:28:50.610Z,19.70
2018-04-14T12:29:54.593Z,19.90
2018-04-14T12:30:57.850Z,19.80
2018-04-14T12:32:01.059Z,20.00
2018-04-14T12:33:04.278Z,20.10
2018-04-14T12:34:08.279Z,20.30
2018-04-14T12:35:11.506Z,20.30
2018-04-14T12:36:14.744Z,20.50
2018-04-14T12:37:17.977Z,20.60
2018-04-14T12:38:21.200Z,20.80
2018-04-14T12:39:25.178Z,21.00
2018-04-14T12:40:28.404Z,21.00
2018-04-14T12:41:31.615Z,21.00
2018-04-14T12:42:34.843Z,20.90
2018-04-14T12:43:38.849Z,20.80
2018-04-14T12:44:42.836Z,20.80
2018-04-14T12:45:46.051Z,20.80
2018-04-14T12:46:49.266Z,20.80
2018-04-14T12:47:52.472Z,20.80
2018-04-14T12:48:56.460Z,20.90
2018-04-14T12:49:59.674Z,20.90
2018-04-14T12:51:03.646Z,21.00
2018-04-14T12:52:06.894Z,21.00
2018-04-14T12:53:10.084Z,21.20
2018-04-14T12:54:13.327Z,21.30
2018-04-14T12:55:17.329Z,21.30
2018-04-14T12:56:21.316Z,21.20
2018-04-14T12:57:25.335Z,21.30
2018-04-14T12:58:28.550Z,21.30
2018-04-14T12:59:31.750Z,21.40
2018-04-14T13:00:34.971Z,21.30
2018-04-14T13:01:38.955Z,21.40
2018-04-14T13:02:42.158Z,21.40
2018-04-14T13:03:46.158Z,21.30
2018-04-14T13:04:50.155Z,21.30
2018-04-14T13:05:54.220Z,21.50
2018-04-14T13:06:57.455Z,21.50
2018-04-14T13:08:00.669Z,21.50
2018-04-14T13:09:03.880Z,21.60
2018-04-14T13:10:07.182Z,21.70
2018-04-14T13:11:11.177Z,21.90
2018-04-14T13:12:15.167Z,22.00
2018-04-14T13:13:18.430Z,22.00
2018-04-14T13:14:21.609Z,22.10
2018-04-14T13:15:24.819Z,22.10
2018-04-14T13:16:28.036Z,22.20
2018-04-14T13:17:31.290Z,22.30
2018-04-14T13:18:34.519Z,22.40
2018-04-14T13:19:37.731Z,22.50
2018-04-14T13:20:40.946Z,22.50
2018-04-14T13:21:44.920Z,22.60
2018-04-14T13:22:48.131Z,22.60
2018-04-14T13:23:52.115Z,22.70
2018-04-14T13:24:56.179Z,22.80
2018-04-14T13:25:59.402Z,22.70
2018-04-14T13:27:02.627Z,22.70
2018-04-14T13:28:05.843Z,22.70
2018-04-14T13:29:09.050Z,22.70
2018-04-14T13:30:12.287Z,22.60
2018-04-14T13:31:15.502Z,22.60
2018-04-14T13:32:18.746Z,22.70
2018-04-14T13:33:21.958Z,22.80
2018-04-14T13:34:25.242Z,22.90
2018-04-14T13:35:28.513Z,23.10
2018-04-14T13:36:32.509Z,23.20
2018-04-14T13:37:36.599Z,23.30
2018-04-14T13:38:39.775Z,23.30
2018-04-14T13:39:42.991Z,23.30
2018-04-14T13:40:46.968Z,23.60
2018-04-14T13:41:50.280Z,23.60
2018-04-14T13:42:53.502Z,23.60
2018-04-14T13:43:56.733Z,23.60
2018-04-14T13:45:00.722Z,23.60
2018-04-14T13:46:04.720Z,23.70
2018-04-14T13:47:08.732Z,23.80
2018-04-14T13:48:12.019Z,23.80
2018-04-14T13:49:16.016Z,24.20